sensor_id;sensor_type;location;lat;lon;timestamp;temperature;humidity
73875;HTU21D;62209;47.568;7.558;2022-11-03T00:07:12;8.82;105.67
73875;HTU21D;62209;47.568;7.558;2022-11-03T00:22:24;8.71;105.31
73875;HTU21D;62209;47.568;7.558;2022-11-03T00:37:32;8.59;105.05
73875;HTU21D;62209;47.568;7.558;2022-11-03T00:52:37;8.46;105.24
73875;HTU21D;62209;47.568;7.558;2022-11-03T01:07:43;8.36;105.35
73875;HTU21D;62209;47.568;7.558;2022-11-03T01:22:48;8.23;105.27
73875;HTU21D;62209;47.568;7.558;2022-11-03T01:37:54;8.09;104.63
73875;HTU21D;62209;47.568;7.558;2022-11-03T01:53:00;8.12;106.04
73875;HTU21D;62209;47.568;7.558;2022-11-03T02:08:07;8.06;106.12
73875;HTU21D;62209;47.568;7.558;2022-11-03T02:23:27;8.01;106.17
73875;HTU21D;62209;47.568;7.558;2022-11-03T02:38:40;7.86;106.08
73875;HTU21D;62209;47.568;7.558;2022-11-03T02:53:51;7.82;106.21
73875;HTU21D;62209;47.568;7.558;2022-11-03T03:09:05;7.76;106.22
73875;HTU21D;62209;47.568;7.558;2022-11-03T03:24:13;7.82;106.79
73875;HTU21D;62209;47.568;7.558;2022-11-03T03:39:24;7.84;106.48
73875;HTU21D;62209;47.568;7.558;2022-11-03T03:54:33;7.83;106.91
73875;HTU21D;62209;47.568;7.558;2022-11-03T04:09:39;8.00;106.91
73875;HTU21D;62209;47.568;7.558;2022-11-03T04:24:45;8.22;106.59
73875;HTU21D;62209;47.568;7.558;2022-11-03T04:39:52;8.09;106.76
73875;HTU21D;62209;47.568;7.558;2022-11-03T04:55:04;8.17;106.88
73875;HTU21D;62209;47.568;7.558;2022-11-03T05:10:14;8.17;106.63
73875;HTU21D;62209;47.568;7.558;2022-11-03T05:25:27;8.22;106.82
73875;HTU21D;62209;47.568;7.558;2022-11-03T05:40:39;8.23;106.60
73875;HTU21D;62209;47.568;7.558;2022-11-03T05:55:45;8.28;106.55
73875;HTU21D;62209;47.568;7.558;2022-11-03T06:10:51;8.34;106.63
73875;HTU21D;62209;47.568;7.558;2022-11-03T06:25:58;8.37;106.77
73875;HTU21D;62209;47.568;7.558;2022-11-03T06:41:07;8.48;106.63
73875;HTU21D;62209;47.568;7.558;2022-11-03T06:56:23;8.85;106.49
73875;HTU21D;62209;47.568;7.558;2022-11-03T07:11:33;9.14;105.84
73875;HTU21D;62209;47.568;7.558;2022-11-03T07:26:49;9.45;105.35
73875;HTU21D;62209;47.568;7.558;2022-11-03T07:42:00;9.92;104.64
73875;HTU21D;62209;47.568;7.558;2022-11-03T07:57:10;10.26;103.63
73875;HTU21D;62209;47.568;7.558;2022-11-03T08:12:20;10.96;101.68
73875;HTU21D;62209;47.568;7.558;2022-11-03T08:27:26;11.26;99.77
73875;HTU21D;62209;47.568;7.558;2022-11-03T08:42:32;12.04;97.47
73875;HTU21D;62209;47.568;7.558;2022-11-03T08:57:37;13.33;94.99
73875;HTU21D;62209;47.568;7.558;2022-11-03T09:12:43;14.19;91.41
73875;HTU21D;62209;47.568;7.558;2022-11-03T09:27:49;13.53;91.83
73875;HTU21D;62209;47.568;7.558;2022-11-03T09:42:54;13.89;92.08
73875;HTU21D;62209;47.568;7.558;2022-11-03T09:58:01;14.66;89.79
73875;HTU21D;62209;47.568;7.558;2022-11-03T10:13:16;14.69;89.11
73875;HTU21D;62209;47.568;7.558;2022-11-03T10:28:27;14.38;89.21
73875;HTU21D;62209;47.568;7.558;2022-11-03T10:43:33;14.63;89.86
73875;HTU21D;62209;47.568;7.558;2022-11-03T10:58:39;14.64;88.33
73875;HTU21D;62209;47.568;7.558;2022-11-03T11:13:45;14.56;89.29
73875;HTU21D;62209;47.568;7.558;2022-11-03T11:29:35;14.43;89.47
73875;HTU21D;62209;47.568;7.558;2022-11-03T11:44:51;14.55;90.03
73875;HTU21D;62209;47.568;7.558;2022-11-03T12:00:00;14.49;90.24
73875;HTU21D;62209;47.568;7.558;2022-11-03T12:30:45;14.44;89.76
73875;HTU21D;62209;47.568;7.558;2022-11-03T12:45:51;14.55;89.82
73875;HTU21D;62209;47.568;7.558;2022-11-03T13:00:56;14.59;88.99
73875;HTU21D;62209;47.568;7.558;2022-11-03T13:16:21;14.53;87.93
73875;HTU21D;62209;47.568;7.558;2022-11-03T13:31:27;14.41;88.22
73875;HTU21D;62209;47.568;7.558;2022-11-03T13:46:33;14.43;86.36
73875;HTU21D;62209;47.568;7.558;2022-11-03T14:01:39;14.48;85.33
73875;HTU21D;62209;47.568;7.558;2022-11-03T14:16:46;14.25;86.48
73875;HTU21D;62209;47.568;7.558;2022-11-03T14:31:52;13.97;88.47
73875;HTU21D;62209;47.568;7.558;2022-11-03T14:46:58;13.99;86.70
73875;HTU21D;62209;47.568;7.558;2022-11-03T15:02:04;13.91;87.28
73875;HTU21D;62209;47.568;7.558;2022-11-03T15:17:10;13.61;88.89
73875;HTU21D;62209;47.568;7.558;2022-11-03T15:32:16;13.56;89.40
73875;HTU21D;62209;47.568;7.558;2022-11-03T15:47:22;13.48;89.71
73875;HTU21D;62209;47.568;7.558;2022-11-03T16:02:27;13.24;90.67
73875;HTU21D;62209;47.568;7.558;2022-11-03T16:17:49;12.99;91.86
73875;HTU21D;62209;47.568;7.558;2022-11-03T16:32:55;12.95;92.78
73875;HTU21D;62209;47.568;7.558;2022-11-03T16:48:01;12.90;93.74
73875;HTU21D;62209;47.568;7.558;2022-11-03T17:03:08;12.88;94.40
73875;HTU21D;62209;47.568;7.558;2022-11-03T17:18:13;12.49;99.23
73875;HTU21D;62209;47.568;7.558;2022-11-03T17:33:19;12.31;101.06
73875;HTU21D;62209;47.568;7.558;2022-11-03T17:48:25;12.36;101.01
73875;HTU21D;62209;47.568;7.558;2022-11-03T18:03:31;12.27;102.53
73875;HTU21D;62209;47.568;7.558;2022-11-03T18:18:38;12.21;102.59
73875;HTU21D;62209;47.568;7.558;2022-11-03T18:33:45;12.15;102.06
73875;HTU21D;62209;47.568;7.558;2022-11-03T18:48:51;12.14;102.29
73875;HTU21D;62209;47.568;7.558;2022-11-03T19:03:57;12.16;101.54
73875;HTU21D;62209;47.568;7.558;2022-11-03T19:19:03;12.05;103.60
73875;HTU21D;62209;47.568;7.558;2022-11-03T19:34:10;12.06;104.25
73875;HTU21D;62209;47.568;7.558;2022-11-03T19:49:19;12.18;105.06
73875;HTU21D;62209;47.568;7.558;2022-11-03T20:04:25;12.31;103.98
73875;HTU21D;62209;47.568;7.558;2022-11-03T20:19:31;11.93;105.46
73875;HTU21D;62209;47.568;7.558;2022-11-03T20:34:37;11.69;104.95
73875;HTU21D;62209;47.568;7.558;2022-11-03T20:49:43;11.58;105.02
73875;HTU21D;62209;47.568;7.558;2022-11-03T21:04:48;11.49;105.02
73875;HTU21D;62209;47.568;7.558;2022-11-03T21:19:55;11.53;100.57
73875;HTU21D;62209;47.568;7.558;2022-11-03T21:35:10;11.53;98.61
73875;HTU21D;62209;47.568;7.558;2022-11-03T21:50:18;11.33;99.16
73875;HTU21D;62209;47.568;7.558;2022-11-03T22:05:24;11.41;97.63
73875;HTU21D;62209;47.568;7.558;2022-11-03T22:20:30;11.34;97.55
73875;HTU21D;62209;47.568;7.558;2022-11-03T22:35:55;11.33;97.35
73875;HTU21D;62209;47.568;7.558;2022-11-03T22:51:23;11.32;96.77
73875;HTU21D;62209;47.568;7.558;2022-11-03T23:06:32;11.13;97.62
73875;HTU21D;62209;47.568;7.558;2022-11-03T23:21:40;11.01;98.72
73875;HTU21D;62209;47.568;7.558;2022-11-03T23:36:48;10.74;102.29
73875;HTU21D;62209;47.568;7.558;2022-11-03T23:51:53;10.71;102.26
